createdAt,value
2022-10-05T00:02:25.747Z,100851.19
2022-10-05T00:04:58.832Z,100845.94
2022-10-05T00:07:26.913Z,100854.63
2022-10-05T00:09:58.008Z,100850.25
2022-10-05T00:12:30.488Z,100840.44
2022-10-05T00:15:01.680Z,100851.94
2022-10-05T00:17:32.592Z,100853.00
2022-10-05T00:20:17.290Z,100838.09
2022-10-05T00:22:47.958Z,100844.34
2022-10-05T00:25:22.210Z,100842.66
2022-10-05T00:27:56.598Z,100841.84
2022-10-05T00:30:27.181Z,100845.47
2022-10-05T00:32:59.520Z,100841.94
2022-10-05T00:35:30.892Z,100843.72
2022-10-05T00:37:59.196Z,100830.47
2022-10-05T00:40:41.590Z,100824.31
2022-10-05T00:43:29.277Z,100821.78
2022-10-05T00:46:07.717Z,100807.44
2022-10-05T00:48:44.419Z,100807.44
2022-10-05T00:51:23.324Z,100799.53
2022-10-05T00:54:02.259Z,100791.63
2022-10-05T00:56:44.311Z,100791.63
2022-10-05T00:59:28.537Z,100789.13
2022-10-05T01:02:03.868Z,100803.31
2022-10-05T01:04:39.714Z,100795.44
2022-10-05T01:07:17.849Z,100802.53
2022-10-05T01:09:57.810Z,100796.28
2022-10-05T01:12:33.245Z,100799.81
2022-10-05T01:15:11.077Z,100780.53
2022-10-05T01:17:44.955Z,100784.13
2022-10-05T01:20:32.187Z,100787.75
2022-10-05T01:23:20.588Z,100795.78
2022-10-05T01:25:57.967Z,100796.66
2022-10-05T01:28:36.163Z,100795.75
2022-10-05T01:31:18.895Z,100800.97
2022-10-05T01:33:53.407Z,100795.41
2022-10-05T01:36:32.018Z,100791.84
2022-10-05T01:39:09.246Z,100790.13
2022-10-05T01:41:48.075Z,100796.25
2022-10-05T01:44:21.475Z,100806.03
2022-10-05T01:46:57.608Z,100810.56
2022-10-05T01:49:36.962Z,100819.31
2022-10-05T01:52:18.191Z,100819.19
2022-10-05T01:55:00.817Z,100822.72
2022-10-05T01:57:36.269Z,100815.72
2022-10-05T02:00:08.625Z,100814.91
2022-10-05T02:02:47.731Z,100810.56
2022-10-05T02:05:22.784Z,100806.19
2022-10-05T02:07:56.094Z,100800.94
2022-10-05T02:10:31.968Z,100799.97
2022-10-05T02:13:07.451Z,100755.13
2022-10-05T02:15:43.263Z,100783.31
2022-10-05T02:18:17.372Z,100781.50
2022-10-05T02:20:48.228Z,100764.69
2022-10-05T02:23:22.502Z,100765.75
2022-10-05T02:25:53.527Z,100755.06
2022-10-05T02:28:29.641Z,100757.81
2022-10-05T02:31:05.549Z,100762.22
2022-10-05T02:33:35.755Z,100756.16
2022-10-05T02:36:14.903Z,100758.81
2022-10-05T02:38:55.428Z,100751.75
2022-10-05T02:41:35.998Z,100748.09
2022-10-05T02:44:18.380Z,100748.13
2022-10-05T02:46:58.076Z,100753.44
2022-10-05T02:49:38.940Z,100763.13
2022-10-05T02:52:13.062Z,100755.22
2022-10-05T02:54:50.951Z,100756.97
2022-10-05T02:57:27.334Z,100755.28
2022-10-05T03:00:03.198Z,100744.63
2022-10-05T03:02:39.192Z,100747.34
2022-10-05T03:05:19.764Z,100735.03
2022-10-05T03:07:55.596Z,100723.53
2022-10-05T03:10:30.034Z,100720.88
2022-10-05T03:13:06.835Z,100718.28
2022-10-05T03:15:51.359Z,100725.19
2022-10-05T03:18:33.363Z,100719.88
2022-10-05T03:21:19.023Z,100721.66
2022-10-05T03:27:26.526Z,100730.53
2022-10-05T03:30:04.054Z,100725.19
2022-10-05T03:32:48.856Z,100729.63
2022-10-05T03:35:24.497Z,100731.34
2022-10-05T03:38:07.354Z,100737.44
2022-10-05T03:40:40.719Z,100744.59
2022-10-05T03:43:31.110Z,100749.63
2022-10-05T03:46:07.519Z,100758.34
2022-10-05T03:48:45.525Z,100761.69
2022-10-05T03:51:22.115Z,100766.06
2022-10-05T03:53:55.750Z,100773.91
2022-10-05T03:56:32.126Z,100773.81
2022-10-05T03:59:14.745Z,100770.22
2022-10-05T04:01:52.096Z,100773.66
2022-10-05T04:04:25.303Z,100766.47
2022-10-05T04:06:55.116Z,100774.44
2022-10-05T04:09:29.613Z,100770.91
2022-10-05T04:12:09.246Z,100756.72
2022-10-05T04:14:46.235Z,100746.09
2022-10-05T04:17:19.403Z,100757.59
2022-10-05T04:19:57.894Z,100760.31
2022-10-05T04:22:32.884Z,100767.34
2022-10-05T04:25:08.142Z,100752.34
2022-10-05T04:27:42.450Z,100756.69
2022-10-05T04:30:15.700Z,100753.19
2022-10-05T04:32:44.701Z,100755.78
2022-10-05T04:35:56.715Z,100754.84
2022-10-05T04:38:41.442Z,100758.34
2022-10-05T04:41:25.710Z,100765.34
2022-10-05T04:44:01.941Z,100762.66
2022-10-05T04:46:46.787Z,100768.94
2022-10-05T04:49:32.852Z,100770.66
2022-10-05T04:52:12.001Z,100766.28
2022-10-05T04:54:51.093Z,100765.59
2022-10-05T04:57:26.252Z,100770.06
2022-10-05T05:00:07.133Z,100784.09
2022-10-05T05:02:57.375Z,100785.81
2022-10-05T05:05:48.395Z,100781.47
2022-10-05T05:08:48.355Z,100787.66
2022-10-05T05:11:28.060Z,100782.41
2022-10-05T05:14:20.597Z,100788.66
2022-10-05T05:17:02.028Z,100795.78
2022-10-05T05:19:42.775Z,100790.53
2022-10-05T05:22:21.417Z,100801.19
2022-10-05T05:25:11.218Z,100799.47
2022-10-05T05:27:44.386Z,100802.13
2022-10-05T05:30:23.568Z,100800.44
2022-10-05T05:33:02.175Z,100795.25
2022-10-05T05:35:45.603Z,100800.50
2022-10-05T05:38:25.250Z,100804.91
2022-10-05T05:41:08.186Z,100808.41
2022-10-05T05:43:51.957Z,100819.00
2022-10-05T05:46:45.020Z,100811.88
2022-10-05T05:49:19.236Z,100821.66
2022-10-05T05:51:55.362Z,100823.38
2022-10-05T05:54:31.530Z,100824.19
2022-10-05T05:57:09.009Z,100823.22
2022-10-05T05:59:50.125Z,100825.88
2022-10-05T06:02:22.492Z,100828.50
2022-10-05T06:04:56.507Z,100820.50
2022-10-05T06:07:30.945Z,100826.63
2022-10-05T06:10:07.246Z,100824.84
2022-10-05T06:12:48.715Z,100826.50
2022-10-05T06:15:37.149Z,100817.31
2022-10-05T06:18:11.895Z,100822.59
2022-10-05T06:20:50.373Z,100819.88
2022-10-05T06:23:26.653Z,100823.31
2022-10-05T06:26:11.023Z,100816.00
2022-10-05T06:28:42.187Z,100806.28
2022-10-05T06:31:21.230Z,100808.38
2022-10-05T06:34:02.963Z,100811.38
2022-10-05T06:36:41.789Z,100815.75
2022-10-05T06:39:32.881Z,100815.50
2022-10-05T06:42:17.011Z,100819.00
2022-10-05T06:45:27.694Z,100824.72
2022-10-05T06:48:38.819Z,100831.94
2022-10-05T06:51:33.331Z,100819.19
2022-10-05T06:54:43.687Z,100828.56
2022-10-05T06:57:24.694Z,100827.13
2022-10-05T07:00:01.724Z,100822.81
2022-10-05T07:02:42.661Z,100825.97
2022-10-05T07:05:35.770Z,100804.72
2022-10-05T07:08:11.458Z,100827.84
2022-10-05T07:10:46.267Z,100815.19
2022-10-05T07:13:41.327Z,100815.47
2022-10-05T07:16:18.608Z,100827.28
2022-10-05T07:18:53.636Z,100822.97
2022-10-05T07:21:32.782Z,100826.22
2022-10-05T07:24:13.476Z,100832.81
2022-10-05T07:26:50.616Z,100828.50
2022-10-05T07:29:30.100Z,100834.69
2022-10-05T07:32:08.213Z,100820.44
2022-10-05T07:34:48.924Z,100829.41
2022-10-05T07:37:44.685Z,100826.53
2022-10-05T07:40:20.754Z,100834.97
2022-10-05T07:43:03.421Z,100834.69
2022-10-05T07:45:41.793Z,100837.47
2022-10-05T07:48:17.999Z,100830.44
2022-10-05T07:50:58.479Z,100835.16
2022-10-05T07:53:31.542Z,100837.53
2022-10-05T07:56:05.598Z,100839.25
2022-10-05T07:58:44.595Z,100841.00
2022-10-05T08:01:19.398Z,100837.50
2022-10-05T08:03:56.770Z,100840.47
2022-10-05T08:06:39.274Z,100829.09
2022-10-05T08:09:17.990Z,100831.59
2022-10-05T08:11:56.430Z,100828.31
2022-10-05T08:14:34.705Z,100837.34
2022-10-05T08:17:09.374Z,100824.53
2022-10-05T08:19:46.844Z,100829.22
2022-10-05T08:22:24.595Z,100826.16
2022-10-05T08:28:22.671Z,100821.94
2022-10-05T08:31:01.188Z,100819.47
2022-10-05T08:33:35.151Z,100815.50
2022-10-05T08:36:11.958Z,100816.88
2022-10-05T08:38:41.081Z,100809.59
2022-10-05T08:41:39.101Z,100814.53
2022-10-05T08:44:52.381Z,100818.81
2022-10-05T08:47:39.500Z,100825.69
2022-10-05T08:50:26.299Z,100818.56
2022-10-05T08:53:31.863Z,100817.88
2022-10-05T08:56:31.203Z,100820.84
2022-10-05T08:59:25.071Z,100820.97
2022-10-05T09:02:25.676Z,100811.19
2022-10-05T09:05:12.937Z,100807.47
2022-10-05T09:08:34.385Z,100813.75
2022-10-05T09:11:08.051Z,100808.13
2022-10-05T09:13:59.840Z,100803.56
2022-10-05T09:16:45.253Z,100805.03
2022-10-05T09:19:50.516Z,100800.94
2022-10-05T09:22:38.065Z,100805.53
2022-10-05T09:25:23.801Z,100810.13
2022-10-05T09:27:57.876Z,100805.56
2022-10-05T09:30:52.077Z,100813.03
2022-10-05T09:33:52.005Z,100811.72
2022-10-05T09:36:47.898Z,100817.94
2022-10-05T09:39:45.927Z,100803.78
2022-10-05T09:42:48.337Z,100785.31
2022-10-05T09:45:53.434Z,100807.28
2022-10-05T09:48:47.101Z,100799.75
2022-10-05T09:51:45.148Z,100805.84
2022-10-05T09:55:06.832Z,100793.00
2022-10-05T09:58:00.374Z,100789.38
2022-10-05T10:00:31.484Z,100786.22
2022-10-05T10:03:22.213Z,100787.91
2022-10-05T10:06:19.212Z,100783.22
2022-10-05T10:09:04.306Z,100784.63
2022-10-05T10:11:47.223Z,100784.59
2022-10-05T10:14:53.534Z,100782.41
2022-10-05T10:17:48.509Z,100781.94
2022-10-05T10:20:31.922Z,100768.72
2022-10-05T10:23:18.285Z,100757.03
2022-10-05T10:26:22.439Z,100755.09
2022-10-05T10:29:22.549Z,100764.59
2022-10-05T10:32:09.686Z,100755.66
2022-10-05T10:35:04.270Z,100756.88
2022-10-05T10:37:58.744Z,100755.06
2022-10-05T10:40:37.547Z,100752.53
2022-10-05T10:43:40.073Z,100750.38
2022-10-05T10:46:21.698Z,100745.59
2022-10-05T10:49:15.767Z,100742.81
2022-10-05T10:52:06.620Z,100750.09
2022-10-05T10:55:01.853Z,100731.66
2022-10-05T10:57:43.108Z,100738.84
2022-10-05T11:00:39.660Z,100734.03
2022-10-05T11:03:46.891Z,100737.78
2022-10-05T11:06:53.794Z,100746.31
2022-10-05T11:09:51.387Z,100733.22
2022-10-05T11:12:59.508Z,100736.69
2022-10-05T11:16:36.091Z,100732.47
2022-10-05T11:20:26.193Z,100721.69
2022-10-05T11:23:02.962Z,100712.72
2022-10-05T11:25:57.121Z,100725.72
2022-10-05T11:28:44.283Z,100715.75
2022-10-05T11:31:36.836Z,100722.56
2022-10-05T11:34:49.472Z,100714.13
2022-10-05T11:37:49.935Z,100708.63
2022-10-05T11:40:54.100Z,100700.91
2022-10-05T11:43:54.207Z,100701.66
2022-10-05T11:46:28.759Z,100693.81
2022-10-05T11:49:20.113Z,100685.53
2022-10-05T11:52:03.287Z,100689.94
2022-10-05T11:55:10.273Z,100681.22
2022-10-05T11:57:49.371Z,100679.81
2022-10-05T12:00:21.076Z,100668.59
2022-10-05T12:03:12.423Z,100664.53
2022-10-05T12:05:53.822Z,100665.25
2022-10-05T12:08:52.607Z,100660.63
2022-10-05T12:11:54.335Z,100648.22
2022-10-05T12:14:35.307Z,100642.19
2022-10-05T12:17:11.533Z,100648.84
2022-10-05T12:19:54.538Z,100644.13
2022-10-05T12:22:27.669Z,100642.25
2022-10-05T12:25:04.083Z,100639.28
2022-10-05T12:27:39.526Z,100640.75
2022-10-05T12:30:16.102Z,100633.72
2022-10-05T12:33:01.711Z,100644.31
2022-10-05T12:35:47.793Z,100633.63
2022-10-05T12:38:24.870Z,100635.31
2022-10-05T12:41:05.460Z,100630.66
2022-10-05T12:43:47.360Z,100610.59
2022-10-05T12:46:25.977Z,100623.56
2022-10-05T12:49:04.638Z,100620.72
2022-10-05T12:51:41.064Z,100625.72
2022-10-05T12:54:21.701Z,100620.75
2022-10-05T12:56:55.640Z,100611.03
2022-10-05T12:59:45.608Z,100608.28
2022-10-05T13:02:24.876Z,100604.47
2022-10-05T13:05:00.992Z,100597.22
2022-10-05T13:07:42.483Z,100602.97
2022-10-05T13:10:22.483Z,100603.94
2022-10-05T13:13:18.282Z,100590.22
2022-10-05T13:15:54.861Z,100583.19
2022-10-05T13:18:31.040Z,100593.16
2022-10-05T13:21:07.502Z,100585.53
2022-10-05T13:23:47.724Z,100588.91
2022-10-05T13:29:24.763Z,100584.41
2022-10-05T13:31:57.352Z,100577.25
2022-10-05T13:34:38.683Z,100581.19
2022-10-05T13:37:13.300Z,100583.81
2022-10-05T13:39:59.624Z,100572.94
2022-10-05T13:42:36.053Z,100573.78
2022-10-05T13:45:14.972Z,100568.22
2022-10-05T13:48:00.168Z,100568.38
2022-10-05T13:50:33.566Z,100568.94
2022-10-05T13:53:12.601Z,100563.41
2022-10-05T13:55:46.780Z,100555.75
2022-10-05T13:58:34.189Z,100560.56
2022-10-05T14:01:40.694Z,100557.72
2022-10-05T14:04:18.008Z,100556.38
2022-10-05T14:06:46.630Z,100555.25
2022-10-05T14:09:29.286Z,100556.25
2022-10-05T14:12:13.222Z,100549.19
2022-10-05T14:14:48.023Z,100546.72
2022-10-05T14:17:32.826Z,100544.25
2022-10-05T14:20:03.507Z,100545.50
2022-10-05T14:22:42.706Z,100546.38
2022-10-05T14:25:18.415Z,100541.69
2022-10-05T14:27:52.443Z,100543.91
2022-10-05T14:30:23.606Z,100535.25
2022-10-05T14:32:56.557Z,100540.31
2022-10-05T14:35:26.443Z,100535.75
2022-10-05T14:38:00.677Z,100521.03
2022-10-05T14:40:34.018Z,100524.25
2022-10-05T14:43:18.352Z,100523.28
2022-10-05T14:45:57.115Z,100524.63
2022-10-05T14:48:29.065Z,100520.66
2022-10-05T14:50:59.375Z,100523.50
2022-10-05T14:53:40.661Z,100514.97
2022-10-05T14:56:29.124Z,100517.69
2022-10-05T14:59:25.438Z,100520.66
2022-10-05T15:01:58.716Z,100525.38
2022-10-05T15:04:43.870Z,100523.63
2022-10-05T15:07:23.991Z,100533.03
2022-10-05T15:10:08.606Z,100527.72
2022-10-05T15:12:58.704Z,100518.44
2022-10-05T15:15:35.427Z,100511.41
2022-10-05T15:18:15.820Z,100516.72
2022-10-05T15:20:56.292Z,100501.41
2022-10-05T15:23:31.406Z,100505.09
2022-10-05T15:26:13.571Z,100502.75
2022-10-05T15:28:49.444Z,100491.25
2022-10-05T15:31:30.118Z,100498.19
2022-10-05T15:34:08.199Z,100489.78
2022-10-05T15:36:43.404Z,100492.06
2022-10-05T15:39:24.004Z,100478.97
2022-10-05T15:42:00.474Z,100478.59
2022-10-05T15:44:47.565Z,100475.13
2022-10-05T15:47:23.376Z,100477.47
2022-10-05T15:50:02.847Z,100485.22
2022-10-05T15:52:41.851Z,100479.28
2022-10-05T15:55:26.060Z,100481.25
2022-10-05T15:58:15.974Z,100476.88
2022-10-05T16:00:47.677Z,100483.25
2022-10-05T16:03:37.392Z,100478.28
2022-10-05T16:06:33.626Z,100477.00
2022-10-05T16:09:17.928Z,100484.41
2022-10-05T16:11:59.692Z,100490.41
2022-10-05T16:14:42.310Z,100492.91
2022-10-05T16:17:25.580Z,100507.16
2022-10-05T16:20:14.794Z,100509.31
2022-10-05T16:22:59.319Z,100503.59
2022-10-05T16:25:42.167Z,100507.09
2022-10-05T16:28:23.083Z,100508.19
2022-10-05T16:31:00.719Z,100516.56
2022-10-05T16:33:46.602Z,100522.28
2022-10-05T16:36:24.274Z,100519.47
2022-10-05T16:39:02.474Z,100524.69
2022-10-05T16:41:41.304Z,100525.00
2022-10-05T16:44:17.662Z,100520.53
2022-10-05T16:46:53.791Z,100518.25
2022-10-05T16:49:33.618Z,100518.34
2022-10-05T16:52:06.688Z,100517.56
2022-10-05T16:54:45.456Z,100524.69
2022-10-05T16:57:21.687Z,100532.78
2022-10-05T17:00:03.995Z,100535.28
2022-10-05T17:03:06.273Z,100545.22
2022-10-05T17:05:55.963Z,100553.34
2022-10-05T17:08:50.939Z,100555.81
2022-10-05T17:11:49.517Z,100565.66
2022-10-05T17:14:39.572Z,100567.13
2022-10-05T17:17:40.853Z,100569.88
2022-10-05T17:20:42.585Z,100572.00
2022-10-05T17:23:31.989Z,100582.28
2022-10-05T17:26:36.218Z,100586.94
2022-10-05T17:29:16.312Z,100589.56
2022-10-05T17:32:03.943Z,100591.00
2022-10-05T17:34:34.305Z,100598.31
2022-10-05T17:37:19.204Z,100601.63
2022-10-05T17:39:50.356Z,100603.88
2022-10-05T17:42:48.643Z,100614.66
2022-10-05T17:45:53.682Z,100618.25
2022-10-05T17:49:11.900Z,100617.13
2022-10-05T17:52:18.963Z,100628.97
2022-10-05T17:55:19.699Z,100628.97
2022-10-05T17:57:48.052Z,100630.28
2022-10-05T18:01:04.410Z,100639.00
2022-10-05T18:03:43.954Z,100646.06
2022-10-05T18:06:35.475Z,100652.94
2022-10-05T18:09:39.585Z,100648.25
2022-10-05T18:12:48.738Z,100654.78
2022-10-05T18:15:48.561Z,100668.72
2022-10-05T18:18:36.615Z,100682.06
2022-10-05T18:21:49.785Z,100679.38
2022-10-05T18:24:36.524Z,100679.53
2022-10-05T18:30:21.592Z,100688.81
2022-10-05T18:33:10.238Z,100681.31
2022-10-05T18:35:49.420Z,100694.78
2022-10-05T18:38:34.469Z,100695.69
2022-10-05T18:41:13.677Z,100700.50
2022-10-05T18:43:49.195Z,100712.00
2022-10-05T18:46:34.479Z,100705.28
2022-10-05T18:49:16.318Z,100704.66
2022-10-05T18:51:51.918Z,100710.59
2022-10-05T18:54:37.506Z,100706.13
2022-10-05T18:57:34.556Z,100716.72
2022-10-05T19:00:21.817Z,100714.81
2022-10-05T19:02:57.081Z,100719.22
2022-10-05T19:05:48.118Z,100720.38
2022-10-05T19:08:27.100Z,100726.78
2022-10-05T19:11:02.426Z,100724.47
2022-10-05T19:13:42.055Z,100735.88
2022-10-05T19:16:31.083Z,100732.03
2022-10-05T19:19:38.189Z,100746.03
2022-10-05T19:22:19.848Z,100744.09
2022-10-05T19:25:05.394Z,100744.50
2022-10-05T19:27:46.936Z,100748.69
2022-10-05T19:30:21.203Z,100757.31
2022-10-05T19:33:13.464Z,100762.06
2022-10-05T19:35:58.089Z,100746.91
2022-10-05T19:38:34.183Z,100758.81
2022-10-05T19:41:15.137Z,100752.69
2022-10-05T19:43:56.437Z,100752.28
2022-10-05T19:46:34.862Z,100768.53
2022-10-05T19:49:03.499Z,100779.59
2022-10-05T19:51:34.470Z,100770.84
2022-10-05T19:54:13.768Z,100774.75
2022-10-05T19:56:49.490Z,100791.94
2022-10-05T19:59:24.573Z,100794.88
2022-10-05T20:01:55.311Z,100807.63
2022-10-05T20:04:34.720Z,100806.81
2022-10-05T20:07:04.969Z,100818.56
2022-10-05T20:09:51.744Z,100821.97
2022-10-05T20:12:22.538Z,100820.34
2022-10-05T20:15:24.239Z,100823.03
2022-10-05T20:18:09.658Z,100827.41
2022-10-05T20:20:45.747Z,100826.88
2022-10-05T20:23:22.169Z,100827.84
2022-10-05T20:26:10.897Z,100834.25
2022-10-05T20:28:39.575Z,100840.63
2022-10-05T20:31:08.718Z,100842.41
2022-10-05T20:33:37.165Z,100846.16
2022-10-05T20:36:08.696Z,100849.91
2022-10-05T20:38:43.822Z,100857.81
2022-10-05T20:41:12.046Z,100857.59
2022-10-05T20:43:40.474Z,100864.88
2022-10-05T20:46:08.679Z,100868.38
2022-10-05T20:48:59.415Z,100860.81
2022-10-05T20:51:28.979Z,100867.28
2022-10-05T20:53:58.520Z,100876.47
2022-10-05T20:56:30.789Z,100883.84
2022-10-05T20:58:58.823Z,100892.97
2022-10-05T21:01:28.894Z,100899.38
2022-10-05T21:03:57.085Z,100899.44
2022-10-05T21:06:28.213Z,100904.03
2022-10-05T21:08:58.166Z,100912.88
2022-10-05T21:11:28.322Z,100923.75
2022-10-05T21:13:56.393Z,100920.28
2022-10-05T21:16:26.936Z,100918.59
2022-10-05T21:23:51.175Z,100920.59
2022-10-05T21:26:20.687Z,100927.63
2022-10-05T21:28:51.398Z,100926.91
2022-10-05T21:31:19.825Z,100924.34
2022-10-05T21:33:47.829Z,100930.53
2022-10-05T21:36:24.548Z,100926.91
2022-10-05T21:38:54.494Z,100926.97
2022-10-05T21:41:24.620Z,100930.56
2022-10-05T21:43:52.978Z,100934.94
2022-10-05T21:46:25.328Z,100938.47
2022-10-05T21:48:54.458Z,100934.03
2022-10-05T21:51:26.139Z,100928.94
2022-10-05T21:53:57.996Z,100936.03
2022-10-05T21:56:34.771Z,100940.47
2022-10-05T21:59:04.103Z,100936.91
2022-10-05T22:01:34.280Z,100945.94
2022-10-05T22:04:02.838Z,100949.59
2022-10-05T22:06:34.258Z,100959.50
2022-10-05T22:09:05.762Z,100965.84
2022-10-05T22:11:40.607Z,100957.13
2022-10-05T22:14:09.195Z,100932.50
2022-10-05T22:16:40.293Z,100957.63
2022-10-05T22:19:14.083Z,100961.09
2022-10-05T22:21:42.734Z,100961.22
2022-10-05T22:24:11.419Z,100958.63
2022-10-05T22:26:47.415Z,100949.56
2022-10-05T22:29:19.729Z,100951.69
2022-10-05T22:31:49.279Z,100952.50
2022-10-05T22:34:18.647Z,100958.25
2022-10-05T22:36:47.453Z,100958.56
2022-10-05T22:39:15.721Z,100959.91
2022-10-05T22:41:45.176Z,100955.59
2022-10-05T22:44:15.908Z,100960.38
2022-10-05T22:46:44.511Z,100957.81
2022-10-05T22:49:12.489Z,100952.53
2022-10-05T22:51:40.883Z,100955.28
2022-10-05T22:54:09.098Z,100965.25
2022-10-05T22:56:37.102Z,100969.56
2022-10-05T22:59:09.048Z,100972.94
2022-10-05T23:01:37.370Z,100962.97
2022-10-05T23:04:05.475Z,100973.78
2022-10-05T23:06:33.580Z,100973.59
2022-10-05T23:09:01.860Z,100985.06
2022-10-05T23:11:31.042Z,100988.47
2022-10-05T23:13:59.948Z,100991.94
2022-10-05T23:16:31.782Z,101001.44
2022-10-05T23:19:04.578Z,100994.13
2022-10-05T23:21:33.125Z,100999.50
2022-10-05T23:24:01.152Z,101010.31
2022-10-05T23:26:32.938Z,101005.25
2022-10-05T23:29:01.100Z,101013.22
2022-10-05T23:31:33.573Z,101011.53
2022-10-05T23:34:02.116Z,101022.22
2022-10-05T23:36:32.268Z,101010.72
2022-10-05T23:39:01.237Z,101003.66
2022-10-05T23:41:29.659Z,101020.41
2022-10-05T23:44:01.036Z,101014.19
2022-10-05T23:46:29.327Z,101019.41
2022-10-05T23:48:58.622Z,101013.69
2022-10-05T23:51:29.830Z,101017.47
2022-10-05T23:53:59.976Z,101020.91
2022-10-05T23:56:28.101Z,101025.50
2022-10-05T23:58:58.502Z,101039.19
